Saint Johns, Arizona
Current Conditions -  °F | °C
As of 7:54 PM on Friday 21 Nov 2014 (Local Time) from KSJN Reporting Station
Clear Clear  
Wind Chill: 34°   Ceiling: Unl
Heat Index: 34°   Visibility: 10mi
Dew Point: 22°   Wind: 3mph
Humidity: 61%   Direction: 210°SSW
Pressure: 30.04"   Gusts: NA
Location:  34.51°N, 109.36°W
Report Text: KSJN 220254Z AUTO 21003KT 10SM CLR 01/M06 A3004 RMK AO2 SLP172 T00111056 53011
Loading
Personal Weather Stations






























Interactive Weather Map New forecast layout! Learn more

10-Day Weather Forecast

Advertisements
Track Severe Weather on mobile